sensor_id;sensor_type;location;lat;lon;timestamp;temperature;humidity
65478;SHT31;53678;39.642;22.430;2023-03-12T00:00:30;13.24;73.41
65478;SHT31;53678;39.642;22.430;2023-03-12T00:02:55;13.32;72.59
65478;SHT31;53678;39.642;22.430;2023-03-12T00:05:21;13.31;72.74
65478;SHT31;53678;39.642;22.430;2023-03-12T00:07:51;13.15;73.52
65478;SHT31;53678;39.642;22.430;2023-03-12T00:10:17;12.95;74.54
65478;SHT31;53678;39.642;22.430;2023-03-12T00:12:43;12.87;74.86
65478;SHT31;53678;39.642;22.430;2023-03-12T00:15:09;13.04;74.50
65478;SHT31;53678;39.642;22.430;2023-03-12T00:17:35;12.94;75.00
65478;SHT31;53678;39.642;22.430;2023-03-12T00:20:01;12.84;75.05
65478;SHT31;53678;39.642;22.430;2023-03-12T00:22:27;13.00;74.67
65478;SHT31;53678;39.642;22.430;2023-03-12T00:24:54;13.11;74.72
65478;SHT31;53678;39.642;22.430;2023-03-12T00:27:21;13.15;74.16
65478;SHT31;53678;39.642;22.430;2023-03-12T00:29:47;13.21;74.27
65478;SHT31;53678;39.642;22.430;2023-03-12T00:32:13;13.32;73.80
65478;SHT31;53678;39.642;22.430;2023-03-12T00:34:38;13.46;73.51
65478;SHT31;53678;39.642;22.430;2023-03-12T00:37:04;13.56;72.86
65478;SHT31;53678;39.642;22.430;2023-03-12T00:39:31;13.73;72.56
65478;SHT31;53678;39.642;22.430;2023-03-12T00:41:56;13.73;72.59
65478;SHT31;53678;39.642;22.430;2023-03-12T00:44:22;13.58;73.03
65478;SHT31;53678;39.642;22.430;2023-03-12T00:46:48;13.29;73.98
65478;SHT31;53678;39.642;22.430;2023-03-12T00:49:13;13.19;74.54
65478;SHT31;53678;39.642;22.430;2023-03-12T00:51:39;13.25;74.33
65478;SHT31;53678;39.642;22.430;2023-03-12T00:54:05;13.07;74.89
65478;SHT31;53678;39.642;22.430;2023-03-12T00:56:31;12.61;76.30
65478;SHT31;53678;39.642;22.430;2023-03-12T00:58:56;12.45;77.19
65478;SHT31;53678;39.642;22.430;2023-03-12T01:01:22;12.56;77.24
65478;SHT31;53678;39.642;22.430;2023-03-12T01:03:49;12.49;76.93
65478;SHT31;53678;39.642;22.430;2023-03-12T01:06:16;12.11;78.28
65478;SHT31;53678;39.642;22.430;2023-03-12T01:08:42;12.25;77.80
65478;SHT31;53678;39.642;22.430;2023-03-12T01:11:15;12.36;77.56
65478;SHT31;53678;39.642;22.430;2023-03-12T01:13:41;12.43;77.22
65478;SHT31;53678;39.642;22.430;2023-03-12T01:16:06;12.56;77.05
65478;SHT31;53678;39.642;22.430;2023-03-12T01:18:32;12.66;76.74
65478;SHT31;53678;39.642;22.430;2023-03-12T01:20:58;12.79;76.28
65478;SHT31;53678;39.642;22.430;2023-03-12T01:23:24;12.80;76.01
65478;SHT31;53678;39.642;22.430;2023-03-12T01:25:50;12.91;75.18
65478;SHT31;53678;39.642;22.430;2023-03-12T01:28:17;12.90;74.13
65478;SHT31;53678;39.642;22.430;2023-03-12T01:30:43;12.67;73.57
65478;SHT31;53678;39.642;22.430;2023-03-12T01:33:09;12.68;73.48
65478;SHT31;53678;39.642;22.430;2023-03-12T01:35:38;12.45;74.36
65478;SHT31;53678;39.642;22.430;2023-03-12T01:38:11;12.29;75.08
65478;SHT31;53678;39.642;22.430;2023-03-12T01:40:37;12.49;74.49
65478;SHT31;53678;39.642;22.430;2023-03-12T01:43:31;12.39;73.50
65478;SHT31;53678;39.642;22.430;2023-03-12T01:46:21;12.39;74.17
65478;SHT31;53678;39.642;22.430;2023-03-12T01:48:56;11.94;75.24
65478;SHT31;53678;39.642;22.430;2023-03-12T01:51:26;12.14;74.99
65478;SHT31;53678;39.642;22.430;2023-03-12T01:53:56;12.25;74.12
65478;SHT31;53678;39.642;22.430;2023-03-12T01:56:24;12.21;73.77
65478;SHT31;53678;39.642;22.430;2023-03-12T01:58:53;12.24;74.16
65478;SHT31;53678;39.642;22.430;2023-03-12T02:01:21;12.35;73.98
65478;SHT31;53678;39.642;22.430;2023-03-12T02:03:50;12.45;73.71
65478;SHT31;53678;39.642;22.430;2023-03-12T02:06:28;12.52;73.50
65478;SHT31;53678;39.642;22.430;2023-03-12T02:08:56;12.63;73.44
65478;SHT31;53678;39.642;22.430;2023-03-12T02:11:24;12.63;72.84
65478;SHT31;53678;39.642;22.430;2023-03-12T02:13:49;12.43;72.98
65478;SHT31;53678;39.642;22.430;2023-03-12T02:16:15;12.30;73.41
65478;SHT31;53678;39.642;22.430;2023-03-12T02:18:42;12.21;73.78
65478;SHT31;53678;39.642;22.430;2023-03-12T02:23:42;11.95;74.54
65478;SHT31;53678;39.642;22.430;2023-03-12T02:26:10;11.82;75.09
65478;SHT31;53678;39.642;22.430;2023-03-12T02:28:38;11.66;74.50
65478;SHT31;53678;39.642;22.430;2023-03-12T02:31:12;11.54;74.84
65478;SHT31;53678;39.642;22.430;2023-03-12T02:33:38;11.50;75.17
65478;SHT31;53678;39.642;22.430;2023-03-12T02:36:04;11.41;75.16
65478;SHT31;53678;39.642;22.430;2023-03-12T02:38:35;11.41;74.84
65478;SHT31;53678;39.642;22.430;2023-03-12T02:43:44;11.40;73.64
65478;SHT31;53678;39.642;22.430;2023-03-12T02:46:11;11.31;73.11
65478;SHT31;53678;39.642;22.430;2023-03-12T02:48:37;11.00;73.39
65478;SHT31;53678;39.642;22.430;2023-03-12T02:51:03;10.76;73.48
65478;SHT31;53678;39.642;22.430;2023-03-12T02:53:29;10.67;73.85
65478;SHT31;53678;39.642;22.430;2023-03-12T02:55:55;10.86;73.36
65478;SHT31;53678;39.642;22.430;2023-03-12T02:58:21;10.89;72.98
65478;SHT31;53678;39.642;22.430;2023-03-12T03:00:47;10.96;72.22
65478;SHT31;53678;39.642;22.430;2023-03-12T03:03:14;10.89;72.28
65478;SHT31;53678;39.642;22.430;2023-03-12T03:05:39;10.78;72.05
65478;SHT31;53678;39.642;22.430;2023-03-12T03:08:06;10.71;72.31
65478;SHT31;53678;39.642;22.430;2023-03-12T03:10:31;10.67;72.27
65478;SHT31;53678;39.642;22.430;2023-03-12T03:12:57;10.73;72.05
65478;SHT31;53678;39.642;22.430;2023-03-12T03:15:23;10.78;71.83
65478;SHT31;53678;39.642;22.430;2023-03-12T03:17:49;10.85;71.44
65478;SHT31;53678;39.642;22.430;2023-03-12T03:20:15;10.86;71.21
65478;SHT31;53678;39.642;22.430;2023-03-12T03:22:40;10.88;71.04
65478;SHT31;53678;39.642;22.430;2023-03-12T03:25:08;10.95;67.66
65478;SHT31;53678;39.642;22.430;2023-03-12T03:27:34;11.08;66.74
65478;SHT31;53678;39.642;22.430;2023-03-12T03:30:00;11.31;65.57
65478;SHT31;53678;39.642;22.430;2023-03-12T03:32:29;11.41;63.98
65478;SHT31;53678;39.642;22.430;2023-03-12T03:34:54;11.47;63.19
65478;SHT31;53678;39.642;22.430;2023-03-12T03:37:20;11.70;61.03
65478;SHT31;53678;39.642;22.430;2023-03-12T03:39:46;11.60;61.09
65478;SHT31;53678;39.642;22.430;2023-03-12T03:42:12;11.64;60.54
65478;SHT31;53678;39.642;22.430;2023-03-12T03:44:38;11.66;60.64
65478;SHT31;53678;39.642;22.430;2023-03-12T03:47:04;11.66;60.41
65478;SHT31;53678;39.642;22.430;2023-03-12T03:49:29;11.77;60.27
65478;SHT31;53678;39.642;22.430;2023-03-12T03:51:56;11.71;60.49
65478;SHT31;53678;39.642;22.430;2023-03-12T03:54:28;11.54;60.75
65478;SHT31;53678;39.642;22.430;2023-03-12T03:56:56;11.50;60.95
65478;SHT31;53678;39.642;22.430;2023-03-12T03:59:21;11.57;60.32
65478;SHT31;53678;39.642;22.430;2023-03-12T04:01:47;11.57;59.99
65478;SHT31;53678;39.642;22.430;2023-03-12T04:04:13;11.64;59.96
65478;SHT31;53678;39.642;22.430;2023-03-12T04:06:39;11.66;59.78
65478;SHT31;53678;39.642;22.430;2023-03-12T04:09:04;11.44;60.16
65478;SHT31;53678;39.642;22.430;2023-03-12T04:11:32;11.40;61.02
65478;SHT31;53678;39.642;22.430;2023-03-12T04:13:59;11.24;61.84
65478;SHT31;53678;39.642;22.430;2023-03-12T04:16:28;11.29;62.19
65478;SHT31;53678;39.642;22.430;2023-03-12T04:18:54;11.30;62.43
65478;SHT31;53678;39.642;22.430;2023-03-12T04:21:21;11.26;62.84
65478;SHT31;53678;39.642;22.430;2023-03-12T04:23:48;11.03;62.94
65478;SHT31;53678;39.642;22.430;2023-03-12T04:26:15;10.72;63.55
65478;SHT31;53678;39.642;22.430;2023-03-12T04:28:42;10.79;63.72
65478;SHT31;53678;39.642;22.430;2023-03-12T04:31:10;10.85;63.14
65478;SHT31;53678;39.642;22.430;2023-03-12T04:33:45;10.89;63.22
65478;SHT31;53678;39.642;22.430;2023-03-12T04:36:10;10.85;63.31
65478;SHT31;53678;39.642;22.430;2023-03-12T04:38:40;10.64;64.02
65478;SHT31;53678;39.642;22.430;2023-03-12T04:41:09;10.54;64.21
65478;SHT31;53678;39.642;22.430;2023-03-12T04:43:39;10.41;64.67
65478;SHT31;53678;39.642;22.430;2023-03-12T04:46:05;10.50;64.36
65478;SHT31;53678;39.642;22.430;2023-03-12T04:48:33;10.52;64.26
65478;SHT31;53678;39.642;22.430;2023-03-12T04:51:00;10.42;64.63
65478;SHT31;53678;39.642;22.430;2023-03-12T04:53:26;10.20;65.74
65478;SHT31;53678;39.642;22.430;2023-03-12T04:55:52;10.34;65.54
65478;SHT31;53678;39.642;22.430;2023-03-12T04:58:18;10.40;65.55
65478;SHT31;53678;39.642;22.430;2023-03-12T05:00:46;10.42;65.91
65478;SHT31;53678;39.642;22.430;2023-03-12T05:03:11;10.57;65.41
65478;SHT31;53678;39.642;22.430;2023-03-12T05:05:37;11.00;64.75
65478;SHT31;53678;39.642;22.430;2023-03-12T05:08:03;11.64;62.73
65478;SHT31;53678;39.642;22.430;2023-03-12T05:10:32;11.31;63.83
65478;SHT31;53678;39.642;22.430;2023-03-12T05:12:58;11.70;63.26
65478;SHT31;53678;39.642;22.430;2023-03-12T05:15:24;11.48;63.62
65478;SHT31;53678;39.642;22.430;2023-03-12T05:17:50;10.65;65.58
65478;SHT31;53678;39.642;22.430;2023-03-12T05:20:16;10.51;65.78
65478;SHT31;53678;39.642;22.430;2023-03-12T05:22:44;11.06;65.11
65478;SHT31;53678;39.642;22.430;2023-03-12T05:25:10;11.12;64.73
65478;SHT31;53678;39.642;22.430;2023-03-12T05:27:36;11.13;64.35
65478;SHT31;53678;39.642;22.430;2023-03-12T05:30:04;11.51;63.97
65478;SHT31;53678;39.642;22.430;2023-03-12T05:32:30;12.01;62.98
65478;SHT31;53678;39.642;22.430;2023-03-12T05:34:56;12.32;62.19
65478;SHT31;53678;39.642;22.430;2023-03-12T05:37:22;12.47;61.47
65478;SHT31;53678;39.642;22.430;2023-03-12T05:39:48;12.61;61.19
65478;SHT31;53678;39.642;22.430;2023-03-12T05:42:16;12.66;61.11
65478;SHT31;53678;39.642;22.430;2023-03-12T05:44:42;13.10;60.18
65478;SHT31;53678;39.642;22.430;2023-03-12T05:47:11;13.89;58.36
65478;SHT31;53678;39.642;22.430;2023-03-12T05:49:39;14.40;57.37
65478;SHT31;53678;39.642;22.430;2023-03-12T05:52:05;15.22;55.54
65478;SHT31;53678;39.642;22.430;2023-03-12T05:54:31;15.24;54.60
65478;SHT31;53678;39.642;22.430;2023-03-12T05:56:57;14.25;57.14
65478;SHT31;53678;39.642;22.430;2023-03-12T05:59:25;13.82;58.39
65478;SHT31;53678;39.642;22.430;2023-03-12T06:01:52;13.63;58.62
65478;SHT31;53678;39.642;22.430;2023-03-12T06:04:18;14.04;57.82
65478;SHT31;53678;39.642;22.430;2023-03-12T06:06:44;14.04;58.04
65478;SHT31;53678;39.642;22.430;2023-03-12T06:09:10;13.59;59.03
65478;SHT31;53678;39.642;22.430;2023-03-12T06:11:36;13.87;58.37
65478;SHT31;53678;39.642;22.430;2023-03-12T06:14:03;14.83;56.05
65478;SHT31;53678;39.642;22.430;2023-03-12T06:16:29;15.41;54.20
65478;SHT31;53678;39.642;22.430;2023-03-12T06:19:01;15.34;55.02
65478;SHT31;53678;39.642;22.430;2023-03-12T06:21:30;15.10;54.87
65478;SHT31;53678;39.642;22.430;2023-03-12T06:23:58;15.99;52.59
65478;SHT31;53678;39.642;22.430;2023-03-12T06:26:28;15.65;52.14
65478;SHT31;53678;39.642;22.430;2023-03-12T06:28:54;14.99;53.79
65478;SHT31;53678;39.642;22.430;2023-03-12T06:31:20;14.00;56.75
65478;SHT31;53678;39.642;22.430;2023-03-12T06:33:46;13.70;57.39
65478;SHT31;53678;39.642;22.430;2023-03-12T06:36:12;13.45;58.24
65478;SHT31;53678;39.642;22.430;2023-03-12T06:38:39;13.49;58.40
65478;SHT31;53678;39.642;22.430;2023-03-12T06:41:12;13.31;59.39
65478;SHT31;53678;39.642;22.430;2023-03-12T06:43:38;13.25;60.06
65478;SHT31;53678;39.642;22.430;2023-03-12T06:46:06;13.12;60.75
65478;SHT31;53678;39.642;22.430;2023-03-12T06:48:34;13.12;60.16
65478;SHT31;53678;39.642;22.430;2023-03-12T06:51:04;12.91;59.63
65478;SHT31;53678;39.642;22.430;2023-03-12T06:53:31;12.88;57.38
65478;SHT31;53678;39.642;22.430;2023-03-12T06:55:56;12.63;58.23
65478;SHT31;53678;39.642;22.430;2023-03-12T06:58:22;12.88;57.92
65478;SHT31;53678;39.642;22.430;2023-03-12T07:00:49;13.04;58.65
65478;SHT31;53678;39.642;22.430;2023-03-12T07:03:14;13.14;57.34
65478;SHT31;53678;39.642;22.430;2023-03-12T07:05:44;13.24;57.69
65478;SHT31;53678;39.642;22.430;2023-03-12T07:08:11;13.62;57.66
65478;SHT31;53678;39.642;22.430;2023-03-12T07:10:37;13.36;57.31
65478;SHT31;53678;39.642;22.430;2023-03-12T07:13:02;13.16;58.06
65478;SHT31;53678;39.642;22.430;2023-03-12T07:15:28;13.51;62.82
65478;SHT31;53678;39.642;22.430;2023-03-12T07:17:54;13.46;62.89
65478;SHT31;53678;39.642;22.430;2023-03-12T07:20:19;13.74;60.60
65478;SHT31;53678;39.642;22.430;2023-03-12T07:22:45;13.87;58.79
65478;SHT31;53678;39.642;22.430;2023-03-12T07:25:11;13.63;53.48
65478;SHT31;53678;39.642;22.430;2023-03-12T07:27:37;13.55;51.14
65478;SHT31;53678;39.642;22.430;2023-03-12T07:30:03;13.84;50.48
65478;SHT31;53678;39.642;22.430;2023-03-12T07:32:32;13.86;51.11
65478;SHT31;53678;39.642;22.430;2023-03-12T07:34:59;13.83;52.05
65478;SHT31;53678;39.642;22.430;2023-03-12T07:37:24;13.72;54.86
65478;SHT31;53678;39.642;22.430;2023-03-12T07:39:50;13.58;51.98
65478;SHT31;53678;39.642;22.430;2023-03-12T07:42:18;14.17;52.41
65478;SHT31;53678;39.642;22.430;2023-03-12T07:44:45;13.73;49.65
65478;SHT31;53678;39.642;22.430;2023-03-12T07:47:11;14.04;49.23
65478;SHT31;53678;39.642;22.430;2023-03-12T07:49:37;13.72;48.67
65478;SHT31;53678;39.642;22.430;2023-03-12T07:52:08;13.83;48.56
65478;SHT31;53678;39.642;22.430;2023-03-12T07:54:37;13.91;47.75
65478;SHT31;53678;39.642;22.430;2023-03-12T07:57:03;14.04;47.27
65478;SHT31;53678;39.642;22.430;2023-03-12T07:59:29;13.89;47.37
65478;SHT31;53678;39.642;22.430;2023-03-12T08:01:54;14.07;47.05
65478;SHT31;53678;39.642;22.430;2023-03-12T08:04:20;13.96;45.11
65478;SHT31;53678;39.642;22.430;2023-03-12T08:06:46;13.72;41.90
65478;SHT31;53678;39.642;22.430;2023-03-12T08:09:11;13.55;40.45
65478;SHT31;53678;39.642;22.430;2023-03-12T08:11:37;13.53;40.91
65478;SHT31;53678;39.642;22.430;2023-03-12T08:14:03;13.58;40.35
65478;SHT31;53678;39.642;22.430;2023-03-12T08:16:29;13.58;40.15
65478;SHT31;53678;39.642;22.430;2023-03-12T08:18:55;13.67;40.96
65478;SHT31;53678;39.642;22.430;2023-03-12T08:21:21;13.90;39.71
65478;SHT31;53678;39.642;22.430;2023-03-12T08:23:47;14.22;38.92
65478;SHT31;53678;39.642;22.430;2023-03-12T08:26:13;13.94;39.68
65478;SHT31;53678;39.642;22.430;2023-03-12T08:28:39;14.44;39.26
65478;SHT31;53678;39.642;22.430;2023-03-12T08:31:05;14.14;38.99
65478;SHT31;53678;39.642;22.430;2023-03-12T08:33:31;14.31;39.42
65478;SHT31;53678;39.642;22.430;2023-03-12T08:35:56;14.30;39.36
65478;SHT31;53678;39.642;22.430;2023-03-12T08:38:22;14.10;39.56
65478;SHT31;53678;39.642;22.430;2023-03-12T08:40:59;14.35;40.89
65478;SHT31;53678;39.642;22.430;2023-03-12T08:43:26;14.32;38.94
65478;SHT31;53678;39.642;22.430;2023-03-12T08:46:00;14.30;39.26
65478;SHT31;53678;39.642;22.430;2023-03-12T08:48:28;14.06;38.99
65478;SHT31;53678;39.642;22.430;2023-03-12T08:50:55;14.40;39.80
65478;SHT31;53678;39.642;22.430;2023-03-12T08:53:22;14.09;38.55
65478;SHT31;53678;39.642;22.430;2023-03-12T08:55:47;14.32;38.89
65478;SHT31;53678;39.642;22.430;2023-03-12T08:58:13;14.31;38.13
65478;SHT31;53678;39.642;22.430;2023-03-12T09:00:39;14.40;37.33
65478;SHT31;53678;39.642;22.430;2023-03-12T09:03:04;14.40;37.47
65478;SHT31;53678;39.642;22.430;2023-03-12T09:05:31;14.88;37.72
65478;SHT31;53678;39.642;22.430;2023-03-12T09:07:57;14.75;38.69
65478;SHT31;53678;39.642;22.430;2023-03-12T09:10:23;15.29;37.64
65478;SHT31;53678;39.642;22.430;2023-03-12T09:12:49;15.31;36.96
65478;SHT31;53678;39.642;22.430;2023-03-12T09:15:15;14.95;39.39
65478;SHT31;53678;39.642;22.430;2023-03-12T09:17:41;14.95;42.76
65478;SHT31;53678;39.642;22.430;2023-03-12T09:20:08;14.88;43.42
65478;SHT31;53678;39.642;22.430;2023-03-12T09:22:35;14.86;44.41
65478;SHT31;53678;39.642;22.430;2023-03-12T09:25:02;14.52;44.64
65478;SHT31;53678;39.642;22.430;2023-03-12T09:27:29;14.42;45.21
65478;SHT31;53678;39.642;22.430;2023-03-12T09:29:54;14.41;44.40
65478;SHT31;53678;39.642;22.430;2023-03-12T09:32:20;14.44;44.64
65478;SHT31;53678;39.642;22.430;2023-03-12T09:34:46;14.00;45.83
65478;SHT31;53678;39.642;22.430;2023-03-12T09:37:11;13.83;46.55
65478;SHT31;53678;39.642;22.430;2023-03-12T09:39:37;14.11;46.98
65478;SHT31;53678;39.642;22.430;2023-03-12T09:42:05;14.00;45.75
65478;SHT31;53678;39.642;22.430;2023-03-12T09:44:39;13.94;46.41
65478;SHT31;53678;39.642;22.430;2023-03-12T09:47:35;13.72;47.14
65478;SHT31;53678;39.642;22.430;2023-03-12T09:50:19;13.66;45.70
65478;SHT31;53678;39.642;22.430;2023-03-12T09:53:00;13.41;45.50
65478;SHT31;53678;39.642;22.430;2023-03-12T09:55:31;13.26;44.61
65478;SHT31;53678;39.642;22.430;2023-03-12T09:57:59;13.11;44.96
65478;SHT31;53678;39.642;22.430;2023-03-12T10:00:33;13.16;45.19
65478;SHT31;53678;39.642;22.430;2023-03-12T10:03:25;13.12;45.77
65478;SHT31;53678;39.642;22.430;2023-03-12T10:06:15;12.90;45.93
65478;SHT31;53678;39.642;22.430;2023-03-12T10:11:57;12.83;45.66
65478;SHT31;53678;39.642;22.430;2023-03-12T10:14:33;12.79;45.44
65478;SHT31;53678;39.642;22.430;2023-03-12T10:20:35;12.85;45.92
65478;SHT31;53678;39.642;22.430;2023-03-12T10:23:06;12.68;47.27
65478;SHT31;53678;39.642;22.430;2023-03-12T10:25:52;12.37;47.51
65478;SHT31;53678;39.642;22.430;2023-03-12T10:28:30;12.46;46.94
65478;SHT31;53678;39.642;22.430;2023-03-12T10:31:00;12.42;46.09
65478;SHT31;53678;39.642;22.430;2023-03-12T10:33:57;12.49;45.21
65478;SHT31;53678;39.642;22.430;2023-03-12T10:36:43;12.66;46.37
65478;SHT31;53678;39.642;22.430;2023-03-12T10:39:15;12.47;45.99
65478;SHT31;53678;39.642;22.430;2023-03-12T10:41:44;12.63;46.64
65478;SHT31;53678;39.642;22.430;2023-03-12T10:44:17;12.56;46.90
65478;SHT31;53678;39.642;22.430;2023-03-12T10:46:54;12.64;45.11
65478;SHT31;53678;39.642;22.430;2023-03-12T10:49:24;12.67;43.06
65478;SHT31;53678;39.642;22.430;2023-03-12T10:54:21;12.64;44.31
65478;SHT31;53678;39.642;22.430;2023-03-12T10:56:50;12.56;45.28
65478;SHT31;53678;39.642;22.430;2023-03-12T10:59:21;12.68;46.20
65478;SHT31;53678;39.642;22.430;2023-03-12T11:01:51;12.47;46.23
65478;SHT31;53678;39.642;22.430;2023-03-12T11:04:37;12.55;46.09
65478;SHT31;53678;39.642;22.430;2023-03-12T11:07:22;12.52;45.31
65478;SHT31;53678;39.642;22.430;2023-03-12T11:12:35;12.66;46.09
65478;SHT31;53678;39.642;22.430;2023-03-12T11:15:39;12.45;45.60
65478;SHT31;53678;39.642;22.430;2023-03-12T11:18:22;12.56;46.14
65478;SHT31;53678;39.642;22.430;2023-03-12T11:20:50;12.66;46.20
65478;SHT31;53678;39.642;22.430;2023-03-12T11:23:24;12.74;47.28
65478;SHT31;53678;39.642;22.430;2023-03-12T11:25:53;12.70;48.68
65478;SHT31;53678;39.642;22.430;2023-03-12T11:28:23;12.72;48.30
65478;SHT31;53678;39.642;22.430;2023-03-12T11:30:51;12.68;48.13
65478;SHT31;53678;39.642;22.430;2023-03-12T11:33:17;12.67;48.01
65478;SHT31;53678;39.642;22.430;2023-03-12T11:35:55;12.67;47.39
65478;SHT31;53678;39.642;22.430;2023-03-12T11:38:51;12.73;49.22
65478;SHT31;53678;39.642;22.430;2023-03-12T11:56:14;12.64;53.26
65478;SHT31;53678;39.642;22.430;2023-03-12T11:59:21;12.83;55.37
65478;SHT31;53678;39.642;22.430;2023-03-12T12:10:26;13.15;52.46
65478;SHT31;53678;39.642;22.430;2023-03-12T12:13:21;13.16;54.04
65478;SHT31;53678;39.642;22.430;2023-03-12T12:18:49;12.53;51.83
65478;SHT31;53678;39.642;22.430;2023-03-12T12:24:23;12.57;51.91
65478;SHT31;53678;39.642;22.430;2023-03-12T12:27:04;12.53;54.44
65478;SHT31;53678;39.642;22.430;2023-03-12T12:37:49;12.52;53.05
65478;SHT31;53678;39.642;22.430;2023-03-12T12:40:42;12.67;51.95
65478;SHT31;53678;39.642;22.430;2023-03-12T12:43:26;12.77;52.63
65478;SHT31;53678;39.642;22.430;2023-03-12T12:45:58;12.66;53.34
65478;SHT31;53678;39.642;22.430;2023-03-12T12:48:59;12.83;53.39
65478;SHT31;53678;39.642;22.430;2023-03-12T12:51:31;12.67;55.77
65478;SHT31;53678;39.642;22.430;2023-03-12T12:57:17;12.32;55.82
65478;SHT31;53678;39.642;22.430;2023-03-12T13:02:32;12.22;56.37
65478;SHT31;53678;39.642;22.430;2023-03-12T13:05:01;12.26;55.97
65478;SHT31;53678;39.642;22.430;2023-03-12T13:07:29;12.46;56.19
65478;SHT31;53678;39.642;22.430;2023-03-12T13:09:57;12.47;56.00
65478;SHT31;53678;39.642;22.430;2023-03-12T13:12:49;12.25;55.80
65478;SHT31;53678;39.642;22.430;2023-03-12T13:20:41;12.49;56.93
65478;SHT31;53678;39.642;22.430;2023-03-12T13:33:56;12.28;57.44
65478;SHT31;53678;39.642;22.430;2023-03-12T13:36:27;12.22;56.91
65478;SHT31;53678;39.642;22.430;2023-03-12T13:38:58;12.21;57.55
65478;SHT31;53678;39.642;22.430;2023-03-12T13:41:47;12.01;57.67
65478;SHT31;53678;39.642;22.430;2023-03-12T13:50:32;12.01;58.65
65478;SHT31;53678;39.642;22.430;2023-03-12T13:53:15;12.08;58.67
65478;SHT31;53678;39.642;22.430;2023-03-12T13:55:45;11.98;58.96
65478;SHT31;53678;39.642;22.430;2023-03-12T13:58:16;12.15;59.17
65478;SHT31;53678;39.642;22.430;2023-03-12T14:03:44;12.18;59.52
65478;SHT31;53678;39.642;22.430;2023-03-12T14:06:19;12.40;59.11
65478;SHT31;53678;39.642;22.430;2023-03-12T14:16:49;12.53;58.23
65478;SHT31;53678;39.642;22.430;2023-03-12T14:19:19;12.42;57.66
65478;SHT31;53678;39.642;22.430;2023-03-12T14:21:48;12.25;58.72
65478;SHT31;53678;39.642;22.430;2023-03-12T14:26:53;12.50;58.12
65478;SHT31;53678;39.642;22.430;2023-03-12T14:29:47;12.57;58.07
65478;SHT31;53678;39.642;22.430;2023-03-12T14:32:19;12.47;58.39
65478;SHT31;53678;39.642;22.430;2023-03-12T14:34:56;12.68;58.28
65478;SHT31;53678;39.642;22.430;2023-03-12T14:37:29;12.50;58.16
65478;SHT31;53678;39.642;22.430;2023-03-12T14:40:00;12.55;57.85
65478;SHT31;53678;39.642;22.430;2023-03-12T14:42:32;12.61;57.88
65478;SHT31;53678;39.642;22.430;2023-03-12T14:47:26;12.74;57.39
65478;SHT31;53678;39.642;22.430;2023-03-12T14:49:54;12.52;58.35
65478;SHT31;53678;39.642;22.430;2023-03-12T14:52:23;12.74;59.19
65478;SHT31;53678;39.642;22.430;2023-03-12T14:57:20;12.80;58.91
65478;SHT31;53678;39.642;22.430;2023-03-12T14:59:54;12.74;59.18
65478;SHT31;53678;39.642;22.430;2023-03-12T15:02:20;12.95;58.54
65478;SHT31;53678;39.642;22.430;2023-03-12T15:04:47;12.94;58.86
65478;SHT31;53678;39.642;22.430;2023-03-12T15:07:17;13.10;57.61
65478;SHT31;53678;39.642;22.430;2023-03-12T15:09:46;13.22;55.85
65478;SHT31;53678;39.642;22.430;2023-03-12T15:12:36;12.95;57.40
65478;SHT31;53678;39.642;22.430;2023-03-12T15:15:08;13.01;57.66
65478;SHT31;53678;39.642;22.430;2023-03-12T15:17:35;13.11;57.31
65478;SHT31;53678;39.642;22.430;2023-03-12T15:20:05;13.07;55.82
65478;SHT31;53678;39.642;22.430;2023-03-12T15:22:34;13.11;56.38
65478;SHT31;53678;39.642;22.430;2023-03-12T15:25:01;13.42;55.15
65478;SHT31;53678;39.642;22.430;2023-03-12T15:29:55;13.22;55.19
65478;SHT31;53678;39.642;22.430;2023-03-12T15:32:22;13.29;55.31
65478;SHT31;53678;39.642;22.430;2023-03-12T15:34:54;13.39;55.50
65478;SHT31;53678;39.642;22.430;2023-03-12T15:37:24;13.10;56.61
65478;SHT31;53678;39.642;22.430;2023-03-12T15:40:15;13.05;55.92
65478;SHT31;53678;39.642;22.430;2023-03-12T15:42:45;13.14;55.96
65478;SHT31;53678;39.642;22.430;2023-03-12T15:45:27;13.24;56.07
65478;SHT31;53678;39.642;22.430;2023-03-12T15:47:55;13.67;62.03
65478;SHT31;53678;39.642;22.430;2023-03-12T15:50:26;14.34;52.11
65478;SHT31;53678;39.642;22.430;2023-03-12T15:53:03;13.94;51.99
65478;SHT31;53678;39.642;22.430;2023-03-12T15:55:34;13.74;52.72
65478;SHT31;53678;39.642;22.430;2023-03-12T15:58:00;13.73;52.96
65478;SHT31;53678;39.642;22.430;2023-03-12T16:00:43;13.58;53.05
65478;SHT31;53678;39.642;22.430;2023-03-12T16:03:17;13.35;53.42
65478;SHT31;53678;39.642;22.430;2023-03-12T16:05:43;13.16;54.18
65478;SHT31;53678;39.642;22.430;2023-03-12T16:08:19;13.22;54.10
65478;SHT31;53678;39.642;22.430;2023-03-12T16:10:47;13.21;54.25
65478;SHT31;53678;39.642;22.430;2023-03-12T16:13:15;13.15;54.40
65478;SHT31;53678;39.642;22.430;2023-03-12T16:15:42;13.00;54.59
65478;SHT31;53678;39.642;22.430;2023-03-12T16:18:15;12.91;54.97
65478;SHT31;53678;39.642;22.430;2023-03-12T16:20:42;12.90;54.69
65478;SHT31;53678;39.642;22.430;2023-03-12T16:23:08;12.88;55.47
65478;SHT31;53678;39.642;22.430;2023-03-12T16:25:34;12.80;55.79
65478;SHT31;53678;39.642;22.430;2023-03-12T16:28:02;12.63;56.16
65478;SHT31;53678;39.642;22.430;2023-03-12T16:30:34;12.46;55.80
65478;SHT31;53678;39.642;22.430;2023-03-12T16:33:02;12.50;56.04
65478;SHT31;53678;39.642;22.430;2023-03-12T16:35:29;12.57;56.29
65478;SHT31;53678;39.642;22.430;2023-03-12T16:37:59;12.50;56.42
65478;SHT31;53678;39.642;22.430;2023-03-12T16:40:29;12.42;56.46
65478;SHT31;53678;39.642;22.430;2023-03-12T16:42:57;12.32;56.76
65478;SHT31;53678;39.642;22.430;2023-03-12T16:45:27;12.32;57.21
65478;SHT31;53678;39.642;22.430;2023-03-12T16:47:57;12.40;57.37
65478;SHT31;53678;39.642;22.430;2023-03-12T16:50:23;12.25;57.60
65478;SHT31;53678;39.642;22.430;2023-03-12T16:52:50;12.19;58.58
65478;SHT31;53678;39.642;22.430;2023-03-12T16:55:20;12.05;59.32
65478;SHT31;53678;39.642;22.430;2023-03-12T16:57:55;11.97;58.88
65478;SHT31;53678;39.642;22.430;2023-03-12T17:00:23;11.98;58.80
65478;SHT31;53678;39.642;22.430;2023-03-12T17:02:51;11.87;59.10
65478;SHT31;53678;39.642;22.430;2023-03-12T17:05:28;11.82;60.17
65478;SHT31;53678;39.642;22.430;2023-03-12T17:07:55;11.82;60.22
65478;SHT31;53678;39.642;22.430;2023-03-12T17:10:22;11.79;61.72
65478;SHT31;53678;39.642;22.430;2023-03-12T17:12:48;11.82;61.53